<?xml version="1.0" encoding="UTF-8" standalone="no" ?>
<gpx xmlns="http://www.topografix.com/GPX/1/1" xmlns:xsi="http://www.w3.org/2001/XMLSchema-instance" xsi:schemaLocation="http://www.topografix.com/GPX/1/1 http://www.topografix.com/GPX/1/1/gpx.xsd" version="1.1" creator="VisuGPX - https://www.visugpx.com">
  <metadata>
    <name>Trail cité des vents</name>
    <desc><![CDATA[Trail cité des vents
90%Chemins
10%Routes]]></desc>
  </metadata>
  <trk>
    <name><![CDATA[6981278-Trail de la cité des vents]]></name>
    <trkseg>
      <trkpt lat="45.03373" lon="3.09492">
        <ele>885</ele>
        <time>2018-06-19T08:00:37Z</time>
      </trkpt>
      <trkpt lat="45.03343" lon="3.09465">
        <ele>887</ele>
        <time>2018-06-19T08:01:37Z</time>
      </trkpt>
      <trkpt lat="45.03342" lon="3.09429">
        <ele>888</ele>
        <time>2018-06-19T08:02:37Z</time>
      </trkpt>
      <trkpt lat="45.03337" lon="3.09352">
        <ele>889</ele>
        <time>2018-06-19T08:03:37Z</time>
      </trkpt>
      <trkpt lat="45.0333" lon="3.09338">
        <ele>888</ele>
        <time>2018-06-19T08:04:37Z</time>
      </trkpt>
      <trkpt lat="45.03304" lon="3.09273">
        <ele>884</ele>
        <time>2018-06-19T08:05:37Z</time>
      </trkpt>
      <trkpt lat="45.03339" lon="3.09254">
        <ele>889</ele>
        <time>2018-06-19T08:06:37Z</time>
      </trkpt>
      <trkpt lat="45.0335" lon="3.09185">
        <ele>885</ele>
        <time>2018-06-19T08:07:37Z</time>
      </trkpt>
      <trkpt lat="45.03356" lon="3.09153">
        <ele>884</ele>
        <time>2018-06-19T08:08:37Z</time>
      </trkpt>
      <trkpt lat="45.03341" lon="3.09131">
        <ele>885</ele>
        <time>2018-06-19T08:09:37Z</time>
      </trkpt>
      <trkpt lat="45.03311" lon="3.09162">
        <ele>881</ele>
        <time>2018-06-19T08:10:37Z</time>
      </trkpt>
      <trkpt lat="45.03297" lon="3.09062">
        <ele>878</ele>
        <time>2018-06-19T08:11:37Z</time>
      </trkpt>
      <trkpt lat="45.03288" lon="3.0893">
        <ele>877</ele>
        <time>2018-06-19T08:12:37Z</time>
      </trkpt>
      <trkpt lat="45.03288" lon="3.08881">
        <ele>878</ele>
        <time>2018-06-19T08:13:37Z</time>
      </trkpt>
      <trkpt lat="45.03281" lon="3.08823">
        <ele>877</ele>
        <time>2018-06-19T08:14:37Z</time>
      </trkpt>
      <trkpt lat="45.0329" lon="3.08801">
        <ele>878</ele>
        <time>2018-06-19T08:15:37Z</time>
      </trkpt>
      <trkpt lat="45.03312" lon="3.08629">
        <ele>880</ele>
        <time>2018-06-19T08:16:37Z</time>
      </trkpt>
      <trkpt lat="45.03319" lon="3.08539">
        <ele>883</ele>
        <time>2018-06-19T08:17:37Z</time>
      </trkpt>
      <trkpt lat="45.03343" lon="3.08329">
        <ele>889</ele>
        <time>2018-06-19T08:18:37Z</time>
      </trkpt>
      <trkpt lat="45.03348" lon="3.08302">
        <ele>890</ele>
        <time>2018-06-19T08:19:37Z</time>
      </trkpt>
      <trkpt lat="45.03309" lon="3.08294">
        <ele>883</ele>
        <time>2018-06-19T08:20:37Z</time>
      </trkpt>
      <trkpt lat="45.03302" lon="3.08274">
        <ele>882</ele>
        <time>2018-06-19T08:21:37Z</time>
      </trkpt>
      <trkpt lat="45.03304" lon="3.08242">
        <ele>882</ele>
        <time>2018-06-19T08:22:37Z</time>
      </trkpt>
      <trkpt lat="45.03314" lon="3.08104">
        <ele>880</ele>
        <time>2018-06-19T08:23:37Z</time>
      </trkpt>
      <trkpt lat="45.03276" lon="3.0809">
        <ele>870</ele>
        <time>2018-06-19T08:24:37Z</time>
      </trkpt>
      <trkpt lat="45.03281" lon="3.08072">
        <ele>870</ele>
        <time>2018-06-19T08:25:37Z</time>
      </trkpt>
      <trkpt lat="45.03293" lon="3.08035">
        <ele>871</ele>
        <time>2018-06-19T08:26:37Z</time>
      </trkpt>
      <trkpt lat="45.03283" lon="3.08031">
        <ele>868</ele>
        <time>2018-06-19T08:27:37Z</time>
      </trkpt>
      <trkpt lat="45.03268" lon="3.08053">
        <ele>866</ele>
        <time>2018-06-19T08:28:37Z</time>
      </trkpt>
      <trkpt lat="45.03256" lon="3.08017">
        <ele>860</ele>
        <time>2018-06-19T08:29:37Z</time>
      </trkpt>
      <trkpt lat="45.03252" lon="3.08002">
        <ele>859</ele>
        <time>2018-06-19T08:30:37Z</time>
      </trkpt>
      <trkpt lat="45.0325" lon="3.07983">
        <ele>856</ele>
        <time>2018-06-19T08:31:37Z</time>
      </trkpt>
      <trkpt lat="45.03286" lon="3.07928">
        <ele>859</ele>
        <time>2018-06-19T08:32:37Z</time>
      </trkpt>
      <trkpt lat="45.03305" lon="3.07852">
        <ele>859</ele>
        <time>2018-06-19T08:33:37Z</time>
      </trkpt>
      <trkpt lat="45.03293" lon="3.07773">
        <ele>854</ele>
        <time>2018-06-19T08:34:37Z</time>
      </trkpt>
      <trkpt lat="45.03275" lon="3.07711">
        <ele>848</ele>
        <time>2018-06-19T08:35:37Z</time>
      </trkpt>
      <trkpt lat="45.03289" lon="3.07702">
        <ele>855</ele>
        <time>2018-06-19T08:36:37Z</time>
      </trkpt>
      <trkpt lat="45.03271" lon="3.0762">
        <ele>849</ele>
        <time>2018-06-19T08:37:37Z</time>
      </trkpt>
      <trkpt lat="45.03261" lon="3.076">
        <ele>845</ele>
        <time>2018-06-19T08:38:37Z</time>
      </trkpt>
      <trkpt lat="45.03245" lon="3.07533">
        <ele>840</ele>
        <time>2018-06-19T08:39:37Z</time>
      </trkpt>
      <trkpt lat="45.03243" lon="3.07476">
        <ele>839</ele>
        <time>2018-06-19T08:40:37Z</time>
      </trkpt>
      <trkpt lat="45.03241" lon="3.07431">
        <ele>837</ele>
        <time>2018-06-19T08:41:37Z</time>
      </trkpt>
      <trkpt lat="45.03237" lon="3.07413">
        <ele>837</ele>
        <time>2018-06-19T08:42:37Z</time>
      </trkpt>
      <trkpt lat="45.03227" lon="3.07456">
        <ele>839</ele>
        <time>2018-06-19T08:43:37Z</time>
      </trkpt>
      <trkpt lat="45.03219" lon="3.07482">
        <ele>840</ele>
        <time>2018-06-19T08:44:37Z</time>
      </trkpt>
      <trkpt lat="45.03211" lon="3.07504">
        <ele>841</ele>
        <time>2018-06-19T08:45:37Z</time>
      </trkpt>
      <trkpt lat="45.0321" lon="3.07531">
        <ele>839</ele>
        <time>2018-06-19T08:46:37Z</time>
      </trkpt>
      <trkpt lat="45.03207" lon="3.07558">
        <ele>838</ele>
        <time>2018-06-19T08:47:37Z</time>
      </trkpt>
      <trkpt lat="45.032" lon="3.07607">
        <ele>835</ele>
        <time>2018-06-19T08:48:37Z</time>
      </trkpt>
      <trkpt lat="45.03193" lon="3.07646">
        <ele>833</ele>
        <time>2018-06-19T08:49:37Z</time>
      </trkpt>
      <trkpt lat="45.03187" lon="3.07672">
        <ele>831</ele>
        <time>2018-06-19T08:50:37Z</time>
      </trkpt>
      <trkpt lat="45.03186" lon="3.0771">
        <ele>831</ele>
        <time>2018-06-19T08:51:37Z</time>
      </trkpt>
      <trkpt lat="45.03188" lon="3.07733">
        <ele>831</ele>
        <time>2018-06-19T08:52:37Z</time>
      </trkpt>
      <trkpt lat="45.03196" lon="3.07773">
        <ele>830</ele>
        <time>2018-06-19T08:53:37Z</time>
      </trkpt>
      <trkpt lat="45.03194" lon="3.07809">
        <ele>828</ele>
        <time>2018-06-19T08:54:37Z</time>
      </trkpt>
      <trkpt lat="45.03183" lon="3.07837">
        <ele>825</ele>
        <time>2018-06-19T08:55:37Z</time>
      </trkpt>
      <trkpt lat="45.03168" lon="3.07862">
        <ele>822</ele>
        <time>2018-06-19T08:56:37Z</time>
      </trkpt>
      <trkpt lat="45.03156" lon="3.07898">
        <ele>822</ele>
        <time>2018-06-19T08:57:37Z</time>
      </trkpt>
      <trkpt lat="45.03143" lon="3.07924">
        <ele>821</ele>
        <time>2018-06-19T08:58:37Z</time>
      </trkpt>
      <trkpt lat="45.03131" lon="3.07946">
        <ele>821</ele>
        <time>2018-06-19T08:59:37Z</time>
      </trkpt>
      <trkpt lat="45.03121" lon="3.07971">
        <ele>822</ele>
        <time>2018-06-19T09:00:37Z</time>
      </trkpt>
      <trkpt lat="45.03102" lon="3.0794">
        <ele>819</ele>
        <time>2018-06-19T09:01:37Z</time>
      </trkpt>
      <trkpt lat="45.03062" lon="3.079">
        <ele>821</ele>
        <time>2018-06-19T09:02:37Z</time>
      </trkpt>
      <trkpt lat="45.0303" lon="3.07889">
        <ele>824</ele>
        <time>2018-06-19T09:03:37Z</time>
      </trkpt>
      <trkpt lat="45.02981" lon="3.07887">
        <ele>825</ele>
        <time>2018-06-19T09:04:37Z</time>
      </trkpt>
      <trkpt lat="45.02958" lon="3.07908">
        <ele>827</ele>
        <time>2018-06-19T09:05:37Z</time>
      </trkpt>
      <trkpt lat="45.02901" lon="3.07946">
        <ele>832</ele>
        <time>2018-06-19T09:06:37Z</time>
      </trkpt>
      <trkpt lat="45.02878" lon="3.07975">
        <ele>836</ele>
        <time>2018-06-19T09:07:37Z</time>
      </trkpt>
      <trkpt lat="45.02842" lon="3.08004">
        <ele>838</ele>
        <time>2018-06-19T09:08:37Z</time>
      </trkpt>
      <trkpt lat="45.02832" lon="3.08013">
        <ele>839</ele>
        <time>2018-06-19T09:09:37Z</time>
      </trkpt>
      <trkpt lat="45.02772" lon="3.08042">
        <ele>842</ele>
        <time>2018-06-19T09:10:37Z</time>
      </trkpt>
      <trkpt lat="45.02759" lon="3.08062">
        <ele>846</ele>
        <time>2018-06-19T09:11:37Z</time>
      </trkpt>
      <trkpt lat="45.02755" lon="3.08109">
        <ele>854</ele>
        <time>2018-06-19T09:12:37Z</time>
      </trkpt>
      <trkpt lat="45.02745" lon="3.08146">
        <ele>859</ele>
        <time>2018-06-19T09:13:37Z</time>
      </trkpt>
      <trkpt lat="45.027" lon="3.08168">
        <ele>864</ele>
        <time>2018-06-19T09:14:37Z</time>
      </trkpt>
      <trkpt lat="45.02666" lon="3.08176">
        <ele>866</ele>
        <time>2018-06-19T09:15:37Z</time>
      </trkpt>
      <trkpt lat="45.02643" lon="3.08192">
        <ele>868</ele>
        <time>2018-06-19T09:16:37Z</time>
      </trkpt>
      <trkpt lat="45.02619" lon="3.08213">
        <ele>869</ele>
        <time>2018-06-19T09:17:37Z</time>
      </trkpt>
      <trkpt lat="45.02557" lon="3.08248">
        <ele>876</ele>
        <time>2018-06-19T09:18:37Z</time>
      </trkpt>
      <trkpt lat="45.02509" lon="3.08279">
        <ele>882</ele>
        <time>2018-06-19T09:19:37Z</time>
      </trkpt>
      <trkpt lat="45.02485" lon="3.08311">
        <ele>885</ele>
        <time>2018-06-19T09:20:37Z</time>
      </trkpt>
      <trkpt lat="45.02472" lon="3.08339">
        <ele>886</ele>
        <time>2018-06-19T09:21:37Z</time>
      </trkpt>
      <trkpt lat="45.02476" lon="3.08358">
        <ele>885</ele>
        <time>2018-06-19T09:22:37Z</time>
      </trkpt>
      <trkpt lat="45.02523" lon="3.08374">
        <ele>882</ele>
        <time>2018-06-19T09:23:37Z</time>
      </trkpt>
      <trkpt lat="45.0258" lon="3.08384">
        <ele>877</ele>
        <time>2018-06-19T09:24:37Z</time>
      </trkpt>
      <trkpt lat="45.02654" lon="3.0843">
        <ele>863</ele>
        <time>2018-06-19T09:25:37Z</time>
      </trkpt>
      <trkpt lat="45.02685" lon="3.08445">
        <ele>859</ele>
        <time>2018-06-19T09:26:37Z</time>
      </trkpt>
      <trkpt lat="45.02707" lon="3.08451">
        <ele>858</ele>
        <time>2018-06-19T09:27:37Z</time>
      </trkpt>
      <trkpt lat="45.02754" lon="3.08538">
        <ele>846</ele>
        <time>2018-06-19T09:28:37Z</time>
      </trkpt>
      <trkpt lat="45.02792" lon="3.08582">
        <ele>840</ele>
        <time>2018-06-19T09:29:37Z</time>
      </trkpt>
      <trkpt lat="45.02849" lon="3.08674">
        <ele>825</ele>
        <time>2018-06-19T09:30:37Z</time>
      </trkpt>
      <trkpt lat="45.02893" lon="3.08713">
        <ele>820</ele>
        <time>2018-06-19T09:31:37Z</time>
      </trkpt>
      <trkpt lat="45.02913" lon="3.08738">
        <ele>815</ele>
        <time>2018-06-19T09:32:37Z</time>
      </trkpt>
      <trkpt lat="45.02933" lon="3.08785">
        <ele>810</ele>
        <time>2018-06-19T09:33:37Z</time>
      </trkpt>
      <trkpt lat="45.02939" lon="3.08847">
        <ele>807</ele>
        <time>2018-06-19T09:34:37Z</time>
      </trkpt>
      <trkpt lat="45.02967" lon="3.08895">
        <ele>803</ele>
        <time>2018-06-19T09:35:37Z</time>
      </trkpt>
      <trkpt lat="45.02983" lon="3.08962">
        <ele>799</ele>
        <time>2018-06-19T09:36:37Z</time>
      </trkpt>
      <trkpt lat="45.02998" lon="3.08977">
        <ele>795</ele>
        <time>2018-06-19T09:37:37Z</time>
      </trkpt>
      <trkpt lat="45.03012" lon="3.08986">
        <ele>797</ele>
        <time>2018-06-19T09:38:37Z</time>
      </trkpt>
      <trkpt lat="45.03027" lon="3.09046">
        <ele>801</ele>
        <time>2018-06-19T09:39:37Z</time>
      </trkpt>
      <trkpt lat="45.03033" lon="3.09079">
        <ele>802</ele>
        <time>2018-06-19T09:40:37Z</time>
      </trkpt>
      <trkpt lat="45.0305" lon="3.09102">
        <ele>807</ele>
        <time>2018-06-19T09:41:37Z</time>
      </trkpt>
      <trkpt lat="45.03054" lon="3.09133">
        <ele>808</ele>
        <time>2018-06-19T09:42:37Z</time>
      </trkpt>
      <trkpt lat="45.03057" lon="3.09156">
        <ele>809</ele>
        <time>2018-06-19T09:43:37Z</time>
      </trkpt>
      <trkpt lat="45.03054" lon="3.09197">
        <ele>806</ele>
        <time>2018-06-19T09:44:37Z</time>
      </trkpt>
      <trkpt lat="45.03048" lon="3.09241">
        <ele>802</ele>
        <time>2018-06-19T09:45:37Z</time>
      </trkpt>
      <trkpt lat="45.03008" lon="3.093">
        <ele>790</ele>
        <time>2018-06-19T09:46:37Z</time>
      </trkpt>
      <trkpt lat="45.02952" lon="3.09326">
        <ele>788</ele>
        <time>2018-06-19T09:47:37Z</time>
      </trkpt>
      <trkpt lat="45.02916" lon="3.09334">
        <ele>787</ele>
        <time>2018-06-19T09:48:37Z</time>
      </trkpt>
      <trkpt lat="45.02914" lon="3.0936">
        <ele>791</ele>
        <time>2018-06-19T09:49:37Z</time>
      </trkpt>
      <trkpt lat="45.02924" lon="3.0939">
        <ele>794</ele>
        <time>2018-06-19T09:50:37Z</time>
      </trkpt>
      <trkpt lat="45.02914" lon="3.09397">
        <ele>796</ele>
        <time>2018-06-19T09:51:37Z</time>
      </trkpt>
      <trkpt lat="45.02888" lon="3.09387">
        <ele>796</ele>
        <time>2018-06-19T09:52:37Z</time>
      </trkpt>
      <trkpt lat="45.02839" lon="3.094">
        <ele>803</ele>
        <time>2018-06-19T09:53:37Z</time>
      </trkpt>
      <trkpt lat="45.02817" lon="3.09416">
        <ele>805</ele>
        <time>2018-06-19T09:54:37Z</time>
      </trkpt>
      <trkpt lat="45.02807" lon="3.09434">
        <ele>811</ele>
        <time>2018-06-19T09:55:37Z</time>
      </trkpt>
      <trkpt lat="45.02831" lon="3.09437">
        <ele>812</ele>
        <time>2018-06-19T09:56:37Z</time>
      </trkpt>
      <trkpt lat="45.02857" lon="3.09451">
        <ele>814</ele>
        <time>2018-06-19T09:57:37Z</time>
      </trkpt>
      <trkpt lat="45.02906" lon="3.09503">
        <ele>826</ele>
        <time>2018-06-19T09:58:37Z</time>
      </trkpt>
      <trkpt lat="45.02897" lon="3.09508">
        <ele>827</ele>
        <time>2018-06-19T09:59:37Z</time>
      </trkpt>
      <trkpt lat="45.02843" lon="3.09495">
        <ele>829</ele>
        <time>2018-06-19T10:00:37Z</time>
      </trkpt>
      <trkpt lat="45.02711" lon="3.09553">
        <ele>850</ele>
        <time>2018-06-19T10:01:37Z</time>
      </trkpt>
      <trkpt lat="45.0269" lon="3.09556">
        <ele>850</ele>
        <time>2018-06-19T10:02:37Z</time>
      </trkpt>
      <trkpt lat="45.02656" lon="3.09566">
        <ele>854</ele>
        <time>2018-06-19T10:03:37Z</time>
      </trkpt>
      <trkpt lat="45.02638" lon="3.09584">
        <ele>860</ele>
        <time>2018-06-19T10:04:37Z</time>
      </trkpt>
      <trkpt lat="45.02585" lon="3.09611">
        <ele>868</ele>
        <time>2018-06-19T10:05:37Z</time>
      </trkpt>
      <trkpt lat="45.02527" lon="3.09624">
        <ele>875</ele>
        <time>2018-06-19T10:06:37Z</time>
      </trkpt>
      <trkpt lat="45.02533" lon="3.09643">
        <ele>876</ele>
        <time>2018-06-19T10:07:37Z</time>
      </trkpt>
      <trkpt lat="45.02532" lon="3.09658">
        <ele>877</ele>
        <time>2018-06-19T10:08:37Z</time>
      </trkpt>
      <trkpt lat="45.02543" lon="3.09682">
        <ele>879</ele>
        <time>2018-06-19T10:09:37Z</time>
      </trkpt>
      <trkpt lat="45.02558" lon="3.09696">
        <ele>880</ele>
        <time>2018-06-19T10:10:37Z</time>
      </trkpt>
      <trkpt lat="45.02574" lon="3.09719">
        <ele>884</ele>
        <time>2018-06-19T10:11:37Z</time>
      </trkpt>
      <trkpt lat="45.02583" lon="3.09746">
        <ele>887</ele>
        <time>2018-06-19T10:12:37Z</time>
      </trkpt>
      <trkpt lat="45.02596" lon="3.09772">
        <ele>888</ele>
        <time>2018-06-19T10:13:37Z</time>
      </trkpt>
      <trkpt lat="45.02613" lon="3.09762">
        <ele>888</ele>
        <time>2018-06-19T10:14:37Z</time>
      </trkpt>
      <trkpt lat="45.02632" lon="3.09727">
        <ele>885</ele>
        <time>2018-06-19T10:15:37Z</time>
      </trkpt>
      <trkpt lat="45.02674" lon="3.09724">
        <ele>885</ele>
        <time>2018-06-19T10:16:37Z</time>
      </trkpt>
      <trkpt lat="45.02696" lon="3.09711">
        <ele>883</ele>
        <time>2018-06-19T10:17:37Z</time>
      </trkpt>
      <trkpt lat="45.02692" lon="3.0968">
        <ele>880</ele>
        <time>2018-06-19T10:18:37Z</time>
      </trkpt>
      <trkpt lat="45.02707" lon="3.09639">
        <ele>872</ele>
        <time>2018-06-19T10:19:37Z</time>
      </trkpt>
      <trkpt lat="45.02729" lon="3.09624">
        <ele>869</ele>
        <time>2018-06-19T10:20:37Z</time>
      </trkpt>
      <trkpt lat="45.0277" lon="3.09621">
        <ele>868</ele>
        <time>2018-06-19T10:21:37Z</time>
      </trkpt>
      <trkpt lat="45.02802" lon="3.09631">
        <ele>866</ele>
        <time>2018-06-19T10:22:37Z</time>
      </trkpt>
      <trkpt lat="45.02828" lon="3.09647">
        <ele>867</ele>
        <time>2018-06-19T10:23:37Z</time>
      </trkpt>
      <trkpt lat="45.02842" lon="3.09664">
        <ele>868</ele>
        <time>2018-06-19T10:24:37Z</time>
      </trkpt>
      <trkpt lat="45.02852" lon="3.09692">
        <ele>870</ele>
        <time>2018-06-19T10:25:37Z</time>
      </trkpt>
      <trkpt lat="45.02882" lon="3.09703">
        <ele>866</ele>
        <time>2018-06-19T10:26:37Z</time>
      </trkpt>
      <trkpt lat="45.02898" lon="3.0972">
        <ele>867</ele>
        <time>2018-06-19T10:27:37Z</time>
      </trkpt>
      <trkpt lat="45.02919" lon="3.0975">
        <ele>868</ele>
        <time>2018-06-19T10:28:37Z</time>
      </trkpt>
      <trkpt lat="45.02924" lon="3.0978">
        <ele>868</ele>
        <time>2018-06-19T10:29:37Z</time>
      </trkpt>
      <trkpt lat="45.02921" lon="3.0984">
        <ele>875</ele>
        <time>2018-06-19T10:30:37Z</time>
      </trkpt>
      <trkpt lat="45.02916" lon="3.09903">
        <ele>879</ele>
        <time>2018-06-19T10:31:37Z</time>
      </trkpt>
      <trkpt lat="45.02921" lon="3.09958">
        <ele>879</ele>
        <time>2018-06-19T10:32:37Z</time>
      </trkpt>
      <trkpt lat="45.02927" lon="3.10004">
        <ele>879</ele>
        <time>2018-06-19T10:33:37Z</time>
      </trkpt>
      <trkpt lat="45.02925" lon="3.10065">
        <ele>880</ele>
        <time>2018-06-19T10:34:37Z</time>
      </trkpt>
      <trkpt lat="45.02916" lon="3.1011">
        <ele>882</ele>
        <time>2018-06-19T10:35:37Z</time>
      </trkpt>
      <trkpt lat="45.02913" lon="3.10187">
        <ele>879</ele>
        <time>2018-06-19T10:36:37Z</time>
      </trkpt>
      <trkpt lat="45.02905" lon="3.10242">
        <ele>877</ele>
        <time>2018-06-19T10:37:37Z</time>
      </trkpt>
      <trkpt lat="45.02906" lon="3.10278">
        <ele>877</ele>
        <time>2018-06-19T10:38:37Z</time>
      </trkpt>
      <trkpt lat="45.02925" lon="3.10342">
        <ele>876</ele>
        <time>2018-06-19T10:39:37Z</time>
      </trkpt>
      <trkpt lat="45.02944" lon="3.10417">
        <ele>876</ele>
        <time>2018-06-19T10:40:37Z</time>
      </trkpt>
      <trkpt lat="45.02953" lon="3.10461">
        <ele>874</ele>
        <time>2018-06-19T10:41:37Z</time>
      </trkpt>
      <trkpt lat="45.02958" lon="3.10534">
        <ele>872</ele>
        <time>2018-06-19T10:42:37Z</time>
      </trkpt>
      <trkpt lat="45.02962" lon="3.10553">
        <ele>871</ele>
        <time>2018-06-19T10:43:37Z</time>
      </trkpt>
      <trkpt lat="45.02985" lon="3.10584">
        <ele>867</ele>
        <time>2018-06-19T10:44:37Z</time>
      </trkpt>
      <trkpt lat="45.03021" lon="3.10627">
        <ele>855</ele>
        <time>2018-06-19T10:45:37Z</time>
      </trkpt>
      <trkpt lat="45.03008" lon="3.10662">
        <ele>855</ele>
        <time>2018-06-19T10:46:37Z</time>
      </trkpt>
      <trkpt lat="45.02995" lon="3.1069">
        <ele>853</ele>
        <time>2018-06-19T10:47:37Z</time>
      </trkpt>
      <trkpt lat="45.02982" lon="3.10702">
        <ele>851</ele>
        <time>2018-06-19T10:48:37Z</time>
      </trkpt>
      <trkpt lat="45.02968" lon="3.10714">
        <ele>850</ele>
        <time>2018-06-19T10:49:37Z</time>
      </trkpt>
      <trkpt lat="45.02956" lon="3.10736">
        <ele>846</ele>
        <time>2018-06-19T10:50:37Z</time>
      </trkpt>
      <trkpt lat="45.02963" lon="3.10763">
        <ele>841</ele>
        <time>2018-06-19T10:51:37Z</time>
      </trkpt>
      <trkpt lat="45.02964" lon="3.10778">
        <ele>839</ele>
        <time>2018-06-19T10:52:37Z</time>
      </trkpt>
      <trkpt lat="45.02977" lon="3.10792">
        <ele>837</ele>
        <time>2018-06-19T10:53:37Z</time>
      </trkpt>
      <trkpt lat="45.02989" lon="3.10795">
        <ele>836</ele>
        <time>2018-06-19T10:54:37Z</time>
      </trkpt>
      <trkpt lat="45.02979" lon="3.10807">
        <ele>834</ele>
        <time>2018-06-19T10:55:37Z</time>
      </trkpt>
      <trkpt lat="45.0297" lon="3.10823">
        <ele>832</ele>
        <time>2018-06-19T10:56:37Z</time>
      </trkpt>
      <trkpt lat="45.02956" lon="3.10844">
        <ele>829</ele>
        <time>2018-06-19T10:57:37Z</time>
      </trkpt>
      <trkpt lat="45.02905" lon="3.10839">
        <ele>828</ele>
        <time>2018-06-19T10:58:37Z</time>
      </trkpt>
      <trkpt lat="45.02844" lon="3.1082">
        <ele>826</ele>
        <time>2018-06-19T10:59:37Z</time>
      </trkpt>
      <trkpt lat="45.02827" lon="3.10809">
        <ele>829</ele>
        <time>2018-06-19T11:00:37Z</time>
      </trkpt>
      <trkpt lat="45.02809" lon="3.10805">
        <ele>833</ele>
        <time>2018-06-19T11:01:37Z</time>
      </trkpt>
      <trkpt lat="45.02811" lon="3.1084">
        <ele>828</ele>
        <time>2018-06-19T11:02:37Z</time>
      </trkpt>
      <trkpt lat="45.02811" lon="3.10889">
        <ele>822</ele>
        <time>2018-06-19T11:03:37Z</time>
      </trkpt>
      <trkpt lat="45.02809" lon="3.10934">
        <ele>818</ele>
        <time>2018-06-19T11:04:37Z</time>
      </trkpt>
      <trkpt lat="45.02803" lon="3.10973">
        <ele>815</ele>
        <time>2018-06-19T11:05:37Z</time>
      </trkpt>
      <trkpt lat="45.02795" lon="3.10996">
        <ele>814</ele>
        <time>2018-06-19T11:06:37Z</time>
      </trkpt>
      <trkpt lat="45.02777" lon="3.11012">
        <ele>816</ele>
        <time>2018-06-19T11:07:37Z</time>
      </trkpt>
      <trkpt lat="45.02741" lon="3.11061">
        <ele>817</ele>
        <time>2018-06-19T11:08:37Z</time>
      </trkpt>
      <trkpt lat="45.02688" lon="3.11085">
        <ele>825</ele>
        <time>2018-06-19T11:09:37Z</time>
      </trkpt>
      <trkpt lat="45.02643" lon="3.11085">
        <ele>830</ele>
        <time>2018-06-19T11:10:37Z</time>
      </trkpt>
      <trkpt lat="45.02565" lon="3.111">
        <ele>826</ele>
        <time>2018-06-19T11:11:37Z</time>
      </trkpt>
      <trkpt lat="45.02526" lon="3.11087">
        <ele>828</ele>
        <time>2018-06-19T11:12:37Z</time>
      </trkpt>
      <trkpt lat="45.02499" lon="3.11113">
        <ele>823</ele>
        <time>2018-06-19T11:13:37Z</time>
      </trkpt>
      <trkpt lat="45.02423" lon="3.11171">
        <ele>832</ele>
        <time>2018-06-19T11:14:37Z</time>
      </trkpt>
      <trkpt lat="45.02396" lon="3.11216">
        <ele>830</ele>
        <time>2018-06-19T11:15:37Z</time>
      </trkpt>
      <trkpt lat="45.02349" lon="3.11265">
        <ele>825</ele>
        <time>2018-06-19T11:16:37Z</time>
      </trkpt>
      <trkpt lat="45.02324" lon="3.11355">
        <ele>807</ele>
        <time>2018-06-19T11:17:37Z</time>
      </trkpt>
      <trkpt lat="45.02218" lon="3.11475">
        <ele>812</ele>
        <time>2018-06-19T11:18:37Z</time>
      </trkpt>
      <trkpt lat="45.02173" lon="3.11632">
        <ele>819</ele>
        <time>2018-06-19T11:19:37Z</time>
      </trkpt>
      <trkpt lat="45.02115" lon="3.11606">
        <ele>822</ele>
        <time>2018-06-19T11:20:37Z</time>
      </trkpt>
      <trkpt lat="45.021" lon="3.11803">
        <ele>810</ele>
        <time>2018-06-19T11:21:37Z</time>
      </trkpt>
      <trkpt lat="45.02096" lon="3.11877">
        <ele>805</ele>
        <time>2018-06-19T11:22:37Z</time>
      </trkpt>
      <trkpt lat="45.02042" lon="3.11898">
        <ele>800</ele>
        <time>2018-06-19T11:23:37Z</time>
      </trkpt>
      <trkpt lat="45.02184" lon="3.12096">
        <ele>769</ele>
        <time>2018-06-19T11:24:37Z</time>
      </trkpt>
      <trkpt lat="45.02159" lon="3.12133">
        <ele>767</ele>
        <time>2018-06-19T11:25:37Z</time>
      </trkpt>
      <trkpt lat="45.02159" lon="3.12194">
        <ele>763</ele>
        <time>2018-06-19T11:26:37Z</time>
      </trkpt>
      <trkpt lat="45.0219" lon="3.12236">
        <ele>768</ele>
        <time>2018-06-19T11:27:37Z</time>
      </trkpt>
      <trkpt lat="45.02176" lon="3.12263">
        <ele>768</ele>
        <time>2018-06-19T11:28:37Z</time>
      </trkpt>
      <trkpt lat="45.02147" lon="3.12322">
        <ele>772</ele>
        <time>2018-06-19T11:29:37Z</time>
      </trkpt>
      <trkpt lat="45.02117" lon="3.12424">
        <ele>778</ele>
        <time>2018-06-19T11:30:37Z</time>
      </trkpt>
      <trkpt lat="45.02102" lon="3.12446">
        <ele>777</ele>
        <time>2018-06-19T11:31:37Z</time>
      </trkpt>
      <trkpt lat="45.02074" lon="3.12484">
        <ele>777</ele>
        <time>2018-06-19T11:32:37Z</time>
      </trkpt>
      <trkpt lat="45.02056" lon="3.12515">
        <ele>781</ele>
        <time>2018-06-19T11:33:37Z</time>
      </trkpt>
      <trkpt lat="45.02045" lon="3.12531">
        <ele>783</ele>
        <time>2018-06-19T11:34:37Z</time>
      </trkpt>
      <trkpt lat="45.02022" lon="3.1259">
        <ele>794</ele>
        <time>2018-06-19T11:35:37Z</time>
      </trkpt>
      <trkpt lat="45.02034" lon="3.12618">
        <ele>801</ele>
        <time>2018-06-19T11:36:37Z</time>
      </trkpt>
      <trkpt lat="45.02035" lon="3.12638">
        <ele>805</ele>
        <time>2018-06-19T11:37:37Z</time>
      </trkpt>
      <trkpt lat="45.02046" lon="3.1266">
        <ele>809</ele>
        <time>2018-06-19T11:38:37Z</time>
      </trkpt>
      <trkpt lat="45.01998" lon="3.12652">
        <ele>805</ele>
        <time>2018-06-19T11:39:37Z</time>
      </trkpt>
      <trkpt lat="45.01977" lon="3.12655">
        <ele>804</ele>
        <time>2018-06-19T11:40:37Z</time>
      </trkpt>
      <trkpt lat="45.01968" lon="3.12656">
        <ele>804</ele>
        <time>2018-06-19T11:41:37Z</time>
      </trkpt>
      <trkpt lat="45.0196" lon="3.12661">
        <ele>805</ele>
        <time>2018-06-19T11:42:37Z</time>
      </trkpt>
      <trkpt lat="45.01941" lon="3.12671">
        <ele>806</ele>
        <time>2018-06-19T11:43:37Z</time>
      </trkpt>
      <trkpt lat="45.01906" lon="3.12712">
        <ele>812</ele>
        <time>2018-06-19T11:44:37Z</time>
      </trkpt>
      <trkpt lat="45.01883" lon="3.12716">
        <ele>813</ele>
        <time>2018-06-19T11:45:37Z</time>
      </trkpt>
      <trkpt lat="45.0183" lon="3.1269">
        <ele>809</ele>
        <time>2018-06-19T11:46:37Z</time>
      </trkpt>
      <trkpt lat="45.01813" lon="3.12687">
        <ele>808</ele>
        <time>2018-06-19T11:47:37Z</time>
      </trkpt>
      <trkpt lat="45.01773" lon="3.12658">
        <ele>805</ele>
        <time>2018-06-19T11:48:37Z</time>
      </trkpt>
      <trkpt lat="45.01749" lon="3.12646">
        <ele>804</ele>
        <time>2018-06-19T11:49:37Z</time>
      </trkpt>
      <trkpt lat="45.01724" lon="3.12636">
        <ele>801</ele>
        <time>2018-06-19T11:50:37Z</time>
      </trkpt>
      <trkpt lat="45.01711" lon="3.12611">
        <ele>799</ele>
        <time>2018-06-19T11:51:37Z</time>
      </trkpt>
      <trkpt lat="45.01711" lon="3.12598">
        <ele>799</ele>
        <time>2018-06-19T11:52:37Z</time>
      </trkpt>
      <trkpt lat="45.01701" lon="3.12587">
        <ele>798</ele>
        <time>2018-06-19T11:53:37Z</time>
      </trkpt>
      <trkpt lat="45.01699" lon="3.12577">
        <ele>797</ele>
        <time>2018-06-19T11:54:37Z</time>
      </trkpt>
      <trkpt lat="45.01706" lon="3.12564">
        <ele>793</ele>
        <time>2018-06-19T11:55:37Z</time>
      </trkpt>
      <trkpt lat="45.01707" lon="3.12555">
        <ele>790</ele>
        <time>2018-06-19T11:56:37Z</time>
      </trkpt>
      <trkpt lat="45.01688" lon="3.12532">
        <ele>786</ele>
        <time>2018-06-19T11:57:37Z</time>
      </trkpt>
      <trkpt lat="45.01683" lon="3.12514">
        <ele>783</ele>
        <time>2018-06-19T11:58:37Z</time>
      </trkpt>
      <trkpt lat="45.01674" lon="3.12512">
        <ele>784</ele>
        <time>2018-06-19T11:59:37Z</time>
      </trkpt>
      <trkpt lat="45.01671" lon="3.12509">
        <ele>784</ele>
        <time>2018-06-19T12:00:37Z</time>
      </trkpt>
      <trkpt lat="45.01662" lon="3.12491">
        <ele>779</ele>
        <time>2018-06-19T12:01:37Z</time>
      </trkpt>
      <trkpt lat="45.01648" lon="3.1247">
        <ele>771</ele>
        <time>2018-06-19T12:02:37Z</time>
      </trkpt>
      <trkpt lat="45.01603" lon="3.12499">
        <ele>768</ele>
        <time>2018-06-19T12:03:37Z</time>
      </trkpt>
      <trkpt lat="45.01592" lon="3.12491">
        <ele>764</ele>
        <time>2018-06-19T12:04:37Z</time>
      </trkpt>
      <trkpt lat="45.01588" lon="3.12441">
        <ele>758</ele>
        <time>2018-06-19T12:05:37Z</time>
      </trkpt>
      <trkpt lat="45.01571" lon="3.12463">
        <ele>760</ele>
        <time>2018-06-19T12:06:37Z</time>
      </trkpt>
      <trkpt lat="45.01555" lon="3.1248">
        <ele>762</ele>
        <time>2018-06-19T12:07:37Z</time>
      </trkpt>
      <trkpt lat="45.01547" lon="3.12497">
        <ele>762</ele>
        <time>2018-06-19T12:08:37Z</time>
      </trkpt>
      <trkpt lat="45.01547" lon="3.1251">
        <ele>764</ele>
        <time>2018-06-19T12:09:37Z</time>
      </trkpt>
      <trkpt lat="45.01552" lon="3.12514">
        <ele>764</ele>
        <time>2018-06-19T12:10:37Z</time>
      </trkpt>
      <trkpt lat="45.01537" lon="3.12532">
        <ele>767</ele>
        <time>2018-06-19T12:11:37Z</time>
      </trkpt>
      <trkpt lat="45.01525" lon="3.12538">
        <ele>769</ele>
        <time>2018-06-19T12:12:37Z</time>
      </trkpt>
      <trkpt lat="45.01519" lon="3.12555">
        <ele>773</ele>
        <time>2018-06-19T12:13:37Z</time>
      </trkpt>
      <trkpt lat="45.01526" lon="3.12561">
        <ele>774</ele>
        <time>2018-06-19T12:14:37Z</time>
      </trkpt>
      <trkpt lat="45.01513" lon="3.12579">
        <ele>779</ele>
        <time>2018-06-19T12:15:37Z</time>
      </trkpt>
      <trkpt lat="45.0151" lon="3.12612">
        <ele>783</ele>
        <time>2018-06-19T12:16:37Z</time>
      </trkpt>
      <trkpt lat="45.015" lon="3.12638">
        <ele>787</ele>
        <time>2018-06-19T12:17:37Z</time>
      </trkpt>
      <trkpt lat="45.01493" lon="3.12658">
        <ele>789</ele>
        <time>2018-06-19T12:18:37Z</time>
      </trkpt>
      <trkpt lat="45.01486" lon="3.12698">
        <ele>791</ele>
        <time>2018-06-19T12:19:37Z</time>
      </trkpt>
      <trkpt lat="45.01476" lon="3.12734">
        <ele>793</ele>
        <time>2018-06-19T12:20:37Z</time>
      </trkpt>
      <trkpt lat="45.01469" lon="3.12776">
        <ele>798</ele>
        <time>2018-06-19T12:21:37Z</time>
      </trkpt>
      <trkpt lat="45.01466" lon="3.12799">
        <ele>802</ele>
        <time>2018-06-19T12:22:37Z</time>
      </trkpt>
      <trkpt lat="45.01496" lon="3.12858">
        <ele>811</ele>
        <time>2018-06-19T12:23:37Z</time>
      </trkpt>
      <trkpt lat="45.01509" lon="3.12897">
        <ele>816</ele>
        <time>2018-06-19T12:24:37Z</time>
      </trkpt>
      <trkpt lat="45.01515" lon="3.12916">
        <ele>819</ele>
        <time>2018-06-19T12:25:37Z</time>
      </trkpt>
      <trkpt lat="45.01511" lon="3.1308">
        <ele>843</ele>
        <time>2018-06-19T12:26:37Z</time>
      </trkpt>
      <trkpt lat="45.01461" lon="3.13144">
        <ele>843</ele>
        <time>2018-06-19T12:27:37Z</time>
      </trkpt>
      <trkpt lat="45.01434" lon="3.13181">
        <ele>841</ele>
        <time>2018-06-19T12:28:37Z</time>
      </trkpt>
      <trkpt lat="45.01396" lon="3.1319">
        <ele>838</ele>
        <time>2018-06-19T12:29:37Z</time>
      </trkpt>
      <trkpt lat="45.01295" lon="3.13184">
        <ele>831</ele>
        <time>2018-06-19T12:30:37Z</time>
      </trkpt>
      <trkpt lat="45.01224" lon="3.13169">
        <ele>825</ele>
        <time>2018-06-19T12:31:37Z</time>
      </trkpt>
      <trkpt lat="45.01174" lon="3.13166">
        <ele>821</ele>
        <time>2018-06-19T12:32:37Z</time>
      </trkpt>
      <trkpt lat="45.01148" lon="3.13187">
        <ele>818</ele>
        <time>2018-06-19T12:33:37Z</time>
      </trkpt>
      <trkpt lat="45.01089" lon="3.13257">
        <ele>811</ele>
        <time>2018-06-19T12:34:37Z</time>
      </trkpt>
      <trkpt lat="45.01075" lon="3.13295">
        <ele>805</ele>
        <time>2018-06-19T12:35:37Z</time>
      </trkpt>
      <trkpt lat="45.01032" lon="3.13308">
        <ele>801</ele>
        <time>2018-06-19T12:36:37Z</time>
      </trkpt>
      <trkpt lat="45.00993" lon="3.13315">
        <ele>798</ele>
        <time>2018-06-19T12:37:37Z</time>
      </trkpt>
      <trkpt lat="45.00948" lon="3.13349">
        <ele>795</ele>
        <time>2018-06-19T12:38:37Z</time>
      </trkpt>
      <trkpt lat="45.00924" lon="3.13383">
        <ele>790</ele>
        <time>2018-06-19T12:39:37Z</time>
      </trkpt>
      <trkpt lat="45.00897" lon="3.13417">
        <ele>782</ele>
        <time>2018-06-19T12:40:37Z</time>
      </trkpt>
      <trkpt lat="45.00887" lon="3.13349">
        <ele>790</ele>
        <time>2018-06-19T12:41:37Z</time>
      </trkpt>
      <trkpt lat="45.00839" lon="3.13489">
        <ele>760</ele>
        <time>2018-06-19T12:42:37Z</time>
      </trkpt>
      <trkpt lat="45.00802" lon="3.13479">
        <ele>758</ele>
        <time>2018-06-19T12:43:37Z</time>
      </trkpt>
      <trkpt lat="45.00844" lon="3.13586">
        <ele>757</ele>
        <time>2018-06-19T12:44:37Z</time>
      </trkpt>
      <trkpt lat="45.00866" lon="3.13607">
        <ele>760</ele>
        <time>2018-06-19T12:45:37Z</time>
      </trkpt>
      <trkpt lat="45.00895" lon="3.13569">
        <ele>767</ele>
        <time>2018-06-19T12:46:37Z</time>
      </trkpt>
      <trkpt lat="45.00912" lon="3.13613">
        <ele>767</ele>
        <time>2018-06-19T12:47:37Z</time>
      </trkpt>
      <trkpt lat="45.00939" lon="3.13655">
        <ele>767</ele>
        <time>2018-06-19T12:48:37Z</time>
      </trkpt>
      <trkpt lat="45.01026" lon="3.13685">
        <ele>778</ele>
        <time>2018-06-19T12:49:37Z</time>
      </trkpt>
      <trkpt lat="45.01065" lon="3.13741">
        <ele>782</ele>
        <time>2018-06-19T12:50:37Z</time>
      </trkpt>
      <trkpt lat="45.01111" lon="3.13814">
        <ele>793</ele>
        <time>2018-06-19T12:51:37Z</time>
      </trkpt>
      <trkpt lat="45.01094" lon="3.13915">
        <ele>806</ele>
        <time>2018-06-19T12:52:37Z</time>
      </trkpt>
      <trkpt lat="45.01105" lon="3.13977">
        <ele>810</ele>
        <time>2018-06-19T12:53:37Z</time>
      </trkpt>
      <trkpt lat="45.01168" lon="3.14037">
        <ele>807</ele>
        <time>2018-06-19T12:54:37Z</time>
      </trkpt>
      <trkpt lat="45.01223" lon="3.14149">
        <ele>812</ele>
        <time>2018-06-19T12:55:37Z</time>
      </trkpt>
      <trkpt lat="45.01267" lon="3.14293">
        <ele>821</ele>
        <time>2018-06-19T12:56:37Z</time>
      </trkpt>
      <trkpt lat="45.01487" lon="3.14127">
        <ele>844</ele>
        <time>2018-06-19T12:57:37Z</time>
      </trkpt>
      <trkpt lat="45.01498" lon="3.14058">
        <ele>844</ele>
        <time>2018-06-19T12:58:37Z</time>
      </trkpt>
      <trkpt lat="45.01534" lon="3.14002">
        <ele>844</ele>
        <time>2018-06-19T12:59:37Z</time>
      </trkpt>
      <trkpt lat="45.016" lon="3.13985">
        <ele>849</ele>
        <time>2018-06-19T13:00:37Z</time>
      </trkpt>
      <trkpt lat="45.01631" lon="3.13922">
        <ele>852</ele>
        <time>2018-06-19T13:01:37Z</time>
      </trkpt>
      <trkpt lat="45.01634" lon="3.1387">
        <ele>856</ele>
        <time>2018-06-19T13:02:37Z</time>
      </trkpt>
      <trkpt lat="45.01625" lon="3.13813">
        <ele>858</ele>
        <time>2018-06-19T13:03:37Z</time>
      </trkpt>
      <trkpt lat="45.01626" lon="3.13749">
        <ele>860</ele>
        <time>2018-06-19T13:04:37Z</time>
      </trkpt>
      <trkpt lat="45.01641" lon="3.1371">
        <ele>861</ele>
        <time>2018-06-19T13:05:37Z</time>
      </trkpt>
      <trkpt lat="45.01599" lon="3.13427">
        <ele>858</ele>
        <time>2018-06-19T13:06:37Z</time>
      </trkpt>
      <trkpt lat="45.01631" lon="3.13435">
        <ele>857</ele>
        <time>2018-06-19T13:07:37Z</time>
      </trkpt>
      <trkpt lat="45.0171" lon="3.1352">
        <ele>852</ele>
        <time>2018-06-19T13:08:37Z</time>
      </trkpt>
      <trkpt lat="45.01758" lon="3.13529">
        <ele>847</ele>
        <time>2018-06-19T13:09:37Z</time>
      </trkpt>
      <trkpt lat="45.0181" lon="3.13563">
        <ele>847</ele>
        <time>2018-06-19T13:10:37Z</time>
      </trkpt>
      <trkpt lat="45.01827" lon="3.13596">
        <ele>849</ele>
        <time>2018-06-19T13:11:37Z</time>
      </trkpt>
      <trkpt lat="45.01869" lon="3.13616">
        <ele>848</ele>
        <time>2018-06-19T13:12:37Z</time>
      </trkpt>
      <trkpt lat="45.0191" lon="3.13617">
        <ele>846</ele>
        <time>2018-06-19T13:13:37Z</time>
      </trkpt>
      <trkpt lat="45.01942" lon="3.13635">
        <ele>842</ele>
        <time>2018-06-19T13:14:37Z</time>
      </trkpt>
      <trkpt lat="45.01962" lon="3.13667">
        <ele>843</ele>
        <time>2018-06-19T13:15:37Z</time>
      </trkpt>
      <trkpt lat="45.01968" lon="3.13694">
        <ele>844</ele>
        <time>2018-06-19T13:16:37Z</time>
      </trkpt>
      <trkpt lat="45.01997" lon="3.13726">
        <ele>842</ele>
        <time>2018-06-19T13:17:37Z</time>
      </trkpt>
      <trkpt lat="45.02024" lon="3.13761">
        <ele>839</ele>
        <time>2018-06-19T13:18:37Z</time>
      </trkpt>
      <trkpt lat="45.02053" lon="3.13812">
        <ele>839</ele>
        <time>2018-06-19T13:19:37Z</time>
      </trkpt>
      <trkpt lat="45.02085" lon="3.1386">
        <ele>840</ele>
        <time>2018-06-19T13:20:37Z</time>
      </trkpt>
      <trkpt lat="45.02125" lon="3.13909">
        <ele>839</ele>
        <time>2018-06-19T13:21:37Z</time>
      </trkpt>
      <trkpt lat="45.02165" lon="3.13935">
        <ele>833</ele>
        <time>2018-06-19T13:22:37Z</time>
      </trkpt>
      <trkpt lat="45.02183" lon="3.13891">
        <ele>824</ele>
        <time>2018-06-19T13:23:37Z</time>
      </trkpt>
      <trkpt lat="45.02158" lon="3.13829">
        <ele>822</ele>
        <time>2018-06-19T13:24:37Z</time>
      </trkpt>
      <trkpt lat="45.0212" lon="3.13807">
        <ele>824</ele>
        <time>2018-06-19T13:25:37Z</time>
      </trkpt>
      <trkpt lat="45.0209" lon="3.13664">
        <ele>805</ele>
        <time>2018-06-19T13:26:37Z</time>
      </trkpt>
      <trkpt lat="45.02043" lon="3.13592">
        <ele>810</ele>
        <time>2018-06-19T13:27:37Z</time>
      </trkpt>
      <trkpt lat="45.01997" lon="3.13546">
        <ele>812</ele>
        <time>2018-06-19T13:28:37Z</time>
      </trkpt>
      <trkpt lat="45.01921" lon="3.1344">
        <ele>811</ele>
        <time>2018-06-19T13:29:37Z</time>
      </trkpt>
      <trkpt lat="45.0187" lon="3.13389">
        <ele>810</ele>
        <time>2018-06-19T13:30:37Z</time>
      </trkpt>
      <trkpt lat="45.01845" lon="3.13316">
        <ele>798</ele>
        <time>2018-06-19T13:31:37Z</time>
      </trkpt>
      <trkpt lat="45.01785" lon="3.13289">
        <ele>809</ele>
        <time>2018-06-19T13:32:37Z</time>
      </trkpt>
      <trkpt lat="45.01744" lon="3.13246">
        <ele>812</ele>
        <time>2018-06-19T13:33:37Z</time>
      </trkpt>
      <trkpt lat="45.01675" lon="3.13085">
        <ele>816</ele>
        <time>2018-06-19T13:34:37Z</time>
      </trkpt>
      <trkpt lat="45.01719" lon="3.13087">
        <ele>796</ele>
        <time>2018-06-19T13:35:37Z</time>
      </trkpt>
      <trkpt lat="45.01737" lon="3.13079">
        <ele>787</ele>
        <time>2018-06-19T13:36:37Z</time>
      </trkpt>
      <trkpt lat="45.01744" lon="3.13061">
        <ele>782</ele>
        <time>2018-06-19T13:37:37Z</time>
      </trkpt>
      <trkpt lat="45.01736" lon="3.13034">
        <ele>782</ele>
        <time>2018-06-19T13:38:37Z</time>
      </trkpt>
      <trkpt lat="45.01752" lon="3.13026">
        <ele>777</ele>
        <time>2018-06-19T13:39:37Z</time>
      </trkpt>
      <trkpt lat="45.01758" lon="3.12998">
        <ele>775</ele>
        <time>2018-06-19T13:40:37Z</time>
      </trkpt>
      <trkpt lat="45.01752" lon="3.12964">
        <ele>774</ele>
        <time>2018-06-19T13:41:37Z</time>
      </trkpt>
      <trkpt lat="45.01753" lon="3.12951">
        <ele>775</ele>
        <time>2018-06-19T13:42:37Z</time>
      </trkpt>
      <trkpt lat="45.0176" lon="3.1292">
        <ele>776</ele>
        <time>2018-06-19T13:43:37Z</time>
      </trkpt>
      <trkpt lat="45.01767" lon="3.12896">
        <ele>780</ele>
        <time>2018-06-19T13:44:37Z</time>
      </trkpt>
      <trkpt lat="45.01788" lon="3.12867">
        <ele>789</ele>
        <time>2018-06-19T13:45:37Z</time>
      </trkpt>
      <trkpt lat="45.018" lon="3.12861">
        <ele>794</ele>
        <time>2018-06-19T13:46:37Z</time>
      </trkpt>
      <trkpt lat="45.01818" lon="3.12844">
        <ele>803</ele>
        <time>2018-06-19T13:47:37Z</time>
      </trkpt>
      <trkpt lat="45.01833" lon="3.12839">
        <ele>810</ele>
        <time>2018-06-19T13:48:37Z</time>
      </trkpt>
      <trkpt lat="45.01809" lon="3.12774">
        <ele>807</ele>
        <time>2018-06-19T13:49:37Z</time>
      </trkpt>
      <trkpt lat="45.01802" lon="3.12731">
        <ele>807</ele>
        <time>2018-06-19T13:50:37Z</time>
      </trkpt>
      <trkpt lat="45.01795" lon="3.12707">
        <ele>806</ele>
        <time>2018-06-19T13:51:37Z</time>
      </trkpt>
      <trkpt lat="45.01789" lon="3.12653">
        <ele>803</ele>
        <time>2018-06-19T13:52:37Z</time>
      </trkpt>
      <trkpt lat="45.01831" lon="3.12715">
        <ele>812</ele>
        <time>2018-06-19T13:53:37Z</time>
      </trkpt>
      <trkpt lat="45.01838" lon="3.12743">
        <ele>816</ele>
        <time>2018-06-19T13:54:37Z</time>
      </trkpt>
      <trkpt lat="45.01866" lon="3.12775">
        <ele>817</ele>
        <time>2018-06-19T13:55:37Z</time>
      </trkpt>
      <trkpt lat="45.0189" lon="3.12787">
        <ele>819</ele>
        <time>2018-06-19T13:56:37Z</time>
      </trkpt>
      <trkpt lat="45.01918" lon="3.12794">
        <ele>822</ele>
        <time>2018-06-19T13:57:37Z</time>
      </trkpt>
      <trkpt lat="45.0195" lon="3.128">
        <ele>824</ele>
        <time>2018-06-19T13:58:37Z</time>
      </trkpt>
      <trkpt lat="45.01981" lon="3.12805">
        <ele>826</ele>
        <time>2018-06-19T13:59:37Z</time>
      </trkpt>
      <trkpt lat="45.02011" lon="3.12776">
        <ele>825</ele>
        <time>2018-06-19T14:00:37Z</time>
      </trkpt>
      <trkpt lat="45.02039" lon="3.12763">
        <ele>824</ele>
        <time>2018-06-19T14:01:37Z</time>
      </trkpt>
      <trkpt lat="45.0206" lon="3.12758">
        <ele>824</ele>
        <time>2018-06-19T14:02:37Z</time>
      </trkpt>
      <trkpt lat="45.02083" lon="3.12728">
        <ele>821</ele>
        <time>2018-06-19T14:03:37Z</time>
      </trkpt>
      <trkpt lat="45.02103" lon="3.1271">
        <ele>820</ele>
        <time>2018-06-19T14:04:37Z</time>
      </trkpt>
      <trkpt lat="45.02119" lon="3.12698">
        <ele>821</ele>
        <time>2018-06-19T14:05:37Z</time>
      </trkpt>
      <trkpt lat="45.02109" lon="3.12667">
        <ele>816</ele>
        <time>2018-06-19T14:06:37Z</time>
      </trkpt>
      <trkpt lat="45.02104" lon="3.12645">
        <ele>813</ele>
        <time>2018-06-19T14:07:37Z</time>
      </trkpt>
      <trkpt lat="45.02108" lon="3.1261">
        <ele>809</ele>
        <time>2018-06-19T14:08:37Z</time>
      </trkpt>
      <trkpt lat="45.02169" lon="3.12528">
        <ele>810</ele>
        <time>2018-06-19T14:09:37Z</time>
      </trkpt>
      <trkpt lat="45.02228" lon="3.12445">
        <ele>812</ele>
        <time>2018-06-19T14:10:37Z</time>
      </trkpt>
      <trkpt lat="45.02257" lon="3.12402">
        <ele>815</ele>
        <time>2018-06-19T14:11:37Z</time>
      </trkpt>
      <trkpt lat="45.0229" lon="3.12353">
        <ele>814</ele>
        <time>2018-06-19T14:12:37Z</time>
      </trkpt>
      <trkpt lat="45.02327" lon="3.12342">
        <ele>817</ele>
        <time>2018-06-19T14:13:37Z</time>
      </trkpt>
      <trkpt lat="45.02355" lon="3.12347">
        <ele>816</ele>
        <time>2018-06-19T14:14:37Z</time>
      </trkpt>
      <trkpt lat="45.02373" lon="3.12357">
        <ele>815</ele>
        <time>2018-06-19T14:15:37Z</time>
      </trkpt>
      <trkpt lat="45.02409" lon="3.12416">
        <ele>816</ele>
        <time>2018-06-19T14:16:37Z</time>
      </trkpt>
      <trkpt lat="45.02424" lon="3.12445">
        <ele>817</ele>
        <time>2018-06-19T14:17:37Z</time>
      </trkpt>
      <trkpt lat="45.02439" lon="3.12459">
        <ele>818</ele>
        <time>2018-06-19T14:18:37Z</time>
      </trkpt>
      <trkpt lat="45.02466" lon="3.12431">
        <ele>817</ele>
        <time>2018-06-19T14:19:37Z</time>
      </trkpt>
      <trkpt lat="45.02469" lon="3.12407">
        <ele>816</ele>
        <time>2018-06-19T14:20:37Z</time>
      </trkpt>
      <trkpt lat="45.02463" lon="3.12312">
        <ele>812</ele>
        <time>2018-06-19T14:21:37Z</time>
      </trkpt>
      <trkpt lat="45.02454" lon="3.12271">
        <ele>809</ele>
        <time>2018-06-19T14:22:37Z</time>
      </trkpt>
      <trkpt lat="45.02444" lon="3.12251">
        <ele>806</ele>
        <time>2018-06-19T14:23:37Z</time>
      </trkpt>
      <trkpt lat="45.0242" lon="3.12227">
        <ele>802</ele>
        <time>2018-06-19T14:24:37Z</time>
      </trkpt>
      <trkpt lat="45.02403" lon="3.12172">
        <ele>797</ele>
        <time>2018-06-19T14:25:37Z</time>
      </trkpt>
      <trkpt lat="45.024" lon="3.12158">
        <ele>794</ele>
        <time>2018-06-19T14:26:37Z</time>
      </trkpt>
      <trkpt lat="45.02434" lon="3.1213">
        <ele>794</ele>
        <time>2018-06-19T14:27:37Z</time>
      </trkpt>
      <trkpt lat="45.02445" lon="3.12115">
        <ele>794</ele>
        <time>2018-06-19T14:28:37Z</time>
      </trkpt>
      <trkpt lat="45.02449" lon="3.12073">
        <ele>788</ele>
        <time>2018-06-19T14:29:37Z</time>
      </trkpt>
      <trkpt lat="45.02464" lon="3.1202">
        <ele>784</ele>
        <time>2018-06-19T14:30:37Z</time>
      </trkpt>
      <trkpt lat="45.02468" lon="3.11989">
        <ele>782</ele>
        <time>2018-06-19T14:31:37Z</time>
      </trkpt>
      <trkpt lat="45.0246" lon="3.11949">
        <ele>776</ele>
        <time>2018-06-19T14:32:37Z</time>
      </trkpt>
      <trkpt lat="45.02455" lon="3.11891">
        <ele>771</ele>
        <time>2018-06-19T14:33:37Z</time>
      </trkpt>
      <trkpt lat="45.02463" lon="3.11822">
        <ele>769</ele>
        <time>2018-06-19T14:34:37Z</time>
      </trkpt>
      <trkpt lat="45.02467" lon="3.11785">
        <ele>768</ele>
        <time>2018-06-19T14:35:37Z</time>
      </trkpt>
      <trkpt lat="45.02382" lon="3.1181">
        <ele>761</ele>
        <time>2018-06-19T14:36:37Z</time>
      </trkpt>
      <trkpt lat="45.02353" lon="3.11808">
        <ele>761</ele>
        <time>2018-06-19T14:37:37Z</time>
      </trkpt>
      <trkpt lat="45.0231" lon="3.11797">
        <ele>766</ele>
        <time>2018-06-19T14:38:37Z</time>
      </trkpt>
      <trkpt lat="45.02312" lon="3.11768">
        <ele>768</ele>
        <time>2018-06-19T14:39:37Z</time>
      </trkpt>
      <trkpt lat="45.02329" lon="3.11707">
        <ele>771</ele>
        <time>2018-06-19T14:40:37Z</time>
      </trkpt>
      <trkpt lat="45.02341" lon="3.1165">
        <ele>776</ele>
        <time>2018-06-19T14:41:37Z</time>
      </trkpt>
      <trkpt lat="45.02346" lon="3.11597">
        <ele>781</ele>
        <time>2018-06-19T14:42:37Z</time>
      </trkpt>
      <trkpt lat="45.02352" lon="3.11533">
        <ele>782</ele>
        <time>2018-06-19T14:43:37Z</time>
      </trkpt>
      <trkpt lat="45.0236" lon="3.11468">
        <ele>783</ele>
        <time>2018-06-19T14:44:37Z</time>
      </trkpt>
      <trkpt lat="45.02383" lon="3.11414">
        <ele>783</ele>
        <time>2018-06-19T14:45:37Z</time>
      </trkpt>
      <trkpt lat="45.02423" lon="3.11377">
        <ele>785</ele>
        <time>2018-06-19T14:46:37Z</time>
      </trkpt>
      <trkpt lat="45.02483" lon="3.11306">
        <ele>791</ele>
        <time>2018-06-19T14:47:37Z</time>
      </trkpt>
      <trkpt lat="45.02514" lon="3.11281">
        <ele>790</ele>
        <time>2018-06-19T14:48:37Z</time>
      </trkpt>
      <trkpt lat="45.02541" lon="3.11254">
        <ele>788</ele>
        <time>2018-06-19T14:49:37Z</time>
      </trkpt>
      <trkpt lat="45.02598" lon="3.11214">
        <ele>788</ele>
        <time>2018-06-19T14:50:37Z</time>
      </trkpt>
      <trkpt lat="45.02643" lon="3.11195">
        <ele>793</ele>
        <time>2018-06-19T14:51:37Z</time>
      </trkpt>
      <trkpt lat="45.02666" lon="3.11194">
        <ele>793</ele>
        <time>2018-06-19T14:52:37Z</time>
      </trkpt>
      <trkpt lat="45.02697" lon="3.11211">
        <ele>785</ele>
        <time>2018-06-19T14:53:37Z</time>
      </trkpt>
      <trkpt lat="45.02729" lon="3.11216">
        <ele>781</ele>
        <time>2018-06-19T14:54:37Z</time>
      </trkpt>
      <trkpt lat="45.02757" lon="3.11232">
        <ele>776</ele>
        <time>2018-06-19T14:55:37Z</time>
      </trkpt>
      <trkpt lat="45.02773" lon="3.1126">
        <ele>774</ele>
        <time>2018-06-19T14:56:37Z</time>
      </trkpt>
      <trkpt lat="45.02787" lon="3.11267">
        <ele>777</ele>
        <time>2018-06-19T14:57:37Z</time>
      </trkpt>
      <trkpt lat="45.02805" lon="3.11247">
        <ele>782</ele>
        <time>2018-06-19T14:58:37Z</time>
      </trkpt>
      <trkpt lat="45.0282" lon="3.11216">
        <ele>787</ele>
        <time>2018-06-19T14:59:37Z</time>
      </trkpt>
      <trkpt lat="45.02829" lon="3.11193">
        <ele>789</ele>
        <time>2018-06-19T15:00:37Z</time>
      </trkpt>
      <trkpt lat="45.02839" lon="3.11159">
        <ele>791</ele>
        <time>2018-06-19T15:01:37Z</time>
      </trkpt>
      <trkpt lat="45.0287" lon="3.11144">
        <ele>799</ele>
        <time>2018-06-19T15:02:37Z</time>
      </trkpt>
      <trkpt lat="45.02888" lon="3.11145">
        <ele>803</ele>
        <time>2018-06-19T15:03:37Z</time>
      </trkpt>
      <trkpt lat="45.02884" lon="3.11207">
        <ele>798</ele>
        <time>2018-06-19T15:04:37Z</time>
      </trkpt>
      <trkpt lat="45.02905" lon="3.11186">
        <ele>803</ele>
        <time>2018-06-19T15:05:37Z</time>
      </trkpt>
      <trkpt lat="45.02925" lon="3.11161">
        <ele>807</ele>
        <time>2018-06-19T15:06:37Z</time>
      </trkpt>
      <trkpt lat="45.02934" lon="3.11138">
        <ele>809</ele>
        <time>2018-06-19T15:07:37Z</time>
      </trkpt>
      <trkpt lat="45.02948" lon="3.11111">
        <ele>813</ele>
        <time>2018-06-19T15:08:37Z</time>
      </trkpt>
      <trkpt lat="45.02955" lon="3.11056">
        <ele>819</ele>
        <time>2018-06-19T15:09:37Z</time>
      </trkpt>
      <trkpt lat="45.0296" lon="3.11042">
        <ele>820</ele>
        <time>2018-06-19T15:10:37Z</time>
      </trkpt>
      <trkpt lat="45.02981" lon="3.10827">
        <ele>832</ele>
        <time>2018-06-19T15:11:37Z</time>
      </trkpt>
      <trkpt lat="45.03022" lon="3.10767">
        <ele>834</ele>
        <time>2018-06-19T15:12:37Z</time>
      </trkpt>
      <trkpt lat="45.03062" lon="3.10698">
        <ele>835</ele>
        <time>2018-06-19T15:13:37Z</time>
      </trkpt>
      <trkpt lat="45.03093" lon="3.10668">
        <ele>829</ele>
        <time>2018-06-19T15:14:37Z</time>
      </trkpt>
      <trkpt lat="45.03132" lon="3.10619">
        <ele>820</ele>
        <time>2018-06-19T15:15:37Z</time>
      </trkpt>
      <trkpt lat="45.03158" lon="3.10559">
        <ele>813</ele>
        <time>2018-06-19T15:16:37Z</time>
      </trkpt>
      <trkpt lat="45.0317" lon="3.1052">
        <ele>808</ele>
        <time>2018-06-19T15:17:37Z</time>
      </trkpt>
      <trkpt lat="45.03168" lon="3.10485">
        <ele>807</ele>
        <time>2018-06-19T15:18:37Z</time>
      </trkpt>
      <trkpt lat="45.0316" lon="3.10429">
        <ele>805</ele>
        <time>2018-06-19T15:19:37Z</time>
      </trkpt>
      <trkpt lat="45.03166" lon="3.10348">
        <ele>793</ele>
        <time>2018-06-19T15:20:37Z</time>
      </trkpt>
      <trkpt lat="45.03171" lon="3.10318">
        <ele>790</ele>
        <time>2018-06-19T15:21:37Z</time>
      </trkpt>
      <trkpt lat="45.03172" lon="3.10259">
        <ele>788</ele>
        <time>2018-06-19T15:22:37Z</time>
      </trkpt>
      <trkpt lat="45.03176" lon="3.10221">
        <ele>789</ele>
        <time>2018-06-19T15:23:37Z</time>
      </trkpt>
      <trkpt lat="45.03203" lon="3.10206">
        <ele>784</ele>
        <time>2018-06-19T15:24:37Z</time>
      </trkpt>
      <trkpt lat="45.03212" lon="3.10172">
        <ele>784</ele>
        <time>2018-06-19T15:25:37Z</time>
      </trkpt>
      <trkpt lat="45.03228" lon="3.10145">
        <ele>781</ele>
        <time>2018-06-19T15:26:37Z</time>
      </trkpt>
      <trkpt lat="45.03239" lon="3.10085">
        <ele>779</ele>
        <time>2018-06-19T15:27:37Z</time>
      </trkpt>
      <trkpt lat="45.03251" lon="3.10108">
        <ele>776</ele>
        <time>2018-06-19T15:28:37Z</time>
      </trkpt>
      <trkpt lat="45.03248" lon="3.10136">
        <ele>776</ele>
        <time>2018-06-19T15:29:37Z</time>
      </trkpt>
      <trkpt lat="45.0324" lon="3.10159">
        <ele>778</ele>
        <time>2018-06-19T15:30:37Z</time>
      </trkpt>
      <trkpt lat="45.03236" lon="3.10178">
        <ele>778</ele>
        <time>2018-06-19T15:31:37Z</time>
      </trkpt>
      <trkpt lat="45.03254" lon="3.10244">
        <ele>772</ele>
        <time>2018-06-19T15:32:37Z</time>
      </trkpt>
      <trkpt lat="45.03265" lon="3.1022">
        <ele>773</ele>
        <time>2018-06-19T15:33:37Z</time>
      </trkpt>
      <trkpt lat="45.03288" lon="3.10093">
        <ele>775</ele>
        <time>2018-06-19T15:34:37Z</time>
      </trkpt>
      <trkpt lat="45.03334" lon="3.09963">
        <ele>777</ele>
        <time>2018-06-19T15:35:37Z</time>
      </trkpt>
      <trkpt lat="45.03363" lon="3.09907">
        <ele>778</ele>
        <time>2018-06-19T15:36:37Z</time>
      </trkpt>
      <trkpt lat="45.03385" lon="3.09872">
        <ele>779</ele>
        <time>2018-06-19T15:37:37Z</time>
      </trkpt>
      <trkpt lat="45.03403" lon="3.099">
        <ele>777</ele>
        <time>2018-06-19T15:38:37Z</time>
      </trkpt>
      <trkpt lat="45.03394" lon="3.09928">
        <ele>777</ele>
        <time>2018-06-19T15:39:37Z</time>
      </trkpt>
      <trkpt lat="45.03372" lon="3.0997">
        <ele>777</ele>
        <time>2018-06-19T15:40:37Z</time>
      </trkpt>
      <trkpt lat="45.03357" lon="3.09993">
        <ele>777</ele>
        <time>2018-06-19T15:41:37Z</time>
      </trkpt>
      <trkpt lat="45.03348" lon="3.09999">
        <ele>777</ele>
        <time>2018-06-19T15:42:37Z</time>
      </trkpt>
      <trkpt lat="45.03289" lon="3.09904">
        <ele>780</ele>
        <time>2018-06-19T15:43:37Z</time>
      </trkpt>
      <trkpt lat="45.0328" lon="3.09889">
        <ele>782</ele>
        <time>2018-06-19T15:44:37Z</time>
      </trkpt>
      <trkpt lat="45.03283" lon="3.09871">
        <ele>784</ele>
        <time>2018-06-19T15:45:37Z</time>
      </trkpt>
      <trkpt lat="45.03275" lon="3.09864">
        <ele>785</ele>
        <time>2018-06-19T15:46:37Z</time>
      </trkpt>
      <trkpt lat="45.03283" lon="3.09851">
        <ele>786</ele>
        <time>2018-06-19T15:47:37Z</time>
      </trkpt>
      <trkpt lat="45.03295" lon="3.09841">
        <ele>787</ele>
        <time>2018-06-19T15:48:37Z</time>
      </trkpt>
      <trkpt lat="45.03293" lon="3.09822">
        <ele>791</ele>
        <time>2018-06-19T15:49:37Z</time>
      </trkpt>
      <trkpt lat="45.03304" lon="3.0981">
        <ele>794</ele>
        <time>2018-06-19T15:50:37Z</time>
      </trkpt>
      <trkpt lat="45.03306" lon="3.09799">
        <ele>796</ele>
        <time>2018-06-19T15:51:37Z</time>
      </trkpt>
      <trkpt lat="45.03306" lon="3.09785">
        <ele>800</ele>
        <time>2018-06-19T15:52:37Z</time>
      </trkpt>
      <trkpt lat="45.03313" lon="3.0976">
        <ele>806</ele>
        <time>2018-06-19T15:53:37Z</time>
      </trkpt>
      <trkpt lat="45.03323" lon="3.09744">
        <ele>811</ele>
        <time>2018-06-19T15:54:37Z</time>
      </trkpt>
      <trkpt lat="45.03329" lon="3.09739">
        <ele>814</ele>
        <time>2018-06-19T15:55:37Z</time>
      </trkpt>
      <trkpt lat="45.03299" lon="3.09701">
        <ele>823</ele>
        <time>2018-06-19T15:56:37Z</time>
      </trkpt>
      <trkpt lat="45.03292" lon="3.0968">
        <ele>828</ele>
        <time>2018-06-19T15:57:37Z</time>
      </trkpt>
      <trkpt lat="45.03267" lon="3.09598">
        <ele>849</ele>
        <time>2018-06-19T15:58:37Z</time>
      </trkpt>
      <trkpt lat="45.03256" lon="3.09552">
        <ele>854</ele>
        <time>2018-06-19T15:59:37Z</time>
      </trkpt>
      <trkpt lat="45.03254" lon="3.09507">
        <ele>861</ele>
        <time>2018-06-19T16:00:37Z</time>
      </trkpt>
      <trkpt lat="45.03269" lon="3.09528">
        <ele>863</ele>
        <time>2018-06-19T16:01:37Z</time>
      </trkpt>
      <trkpt lat="45.03303" lon="3.09576">
        <ele>869</ele>
        <time>2018-06-19T16:02:37Z</time>
      </trkpt>
      <trkpt lat="45.03312" lon="3.09596">
        <ele>866</ele>
        <time>2018-06-19T16:03:37Z</time>
      </trkpt>
      <trkpt lat="45.03341" lon="3.09615">
        <ele>863</ele>
        <time>2018-06-19T16:04:37Z</time>
      </trkpt>
      <trkpt lat="45.03353" lon="3.09588">
        <ele>872</ele>
        <time>2018-06-19T16:05:37Z</time>
      </trkpt>
      <trkpt lat="45.03357" lon="3.09563">
        <ele>876</ele>
        <time>2018-06-19T16:06:37Z</time>
      </trkpt>
      <trkpt lat="45.03361" lon="3.09522">
        <ele>881</ele>
        <time>2018-06-19T16:07:37Z</time>
      </trkpt>
    </trkseg>
  </trk>
</gpx>